createdAt,value
2022-08-03T00:00:57.569Z,101310.91
2022-08-03T00:06:03.997Z,101315.34
2022-08-03T00:11:08.002Z,101320.63
2022-08-03T00:16:13.338Z,101305.41
2022-08-03T00:21:16.143Z,101314.31
2022-08-03T00:26:18.940Z,101305.31
2022-08-03T00:31:40.144Z,101305.22
2022-08-03T00:36:45.967Z,101305.16
2022-08-03T00:41:48.854Z,101309.72
2022-08-03T00:46:53.075Z,101313.34
2022-08-03T00:51:56.419Z,101313.34
2022-08-03T00:57:00.416Z,101313.34
2022-08-03T01:02:04.859Z,101297.28
2022-08-03T01:07:13.075Z,101295.47
2022-08-03T01:12:29.909Z,101295.47
2022-08-03T01:17:41.599Z,101289.22
2022-08-03T01:23:07.782Z,101282.03
2022-08-03T01:28:26.539Z,101281.06
2022-08-03T01:33:37.357Z,101274.78
2022-08-03T01:38:44.824Z,101273.84
2022-08-03T01:44:27.983Z,101265.75
2022-08-03T01:49:18.075Z,101264.84
2022-08-03T01:54:23.001Z,101263.88
2022-08-03T01:59:27.415Z,101258.50
2022-08-03T02:04:32.041Z,101263.75
2022-08-03T02:09:38.187Z,101259.22
2022-08-03T02:14:42.435Z,101257.31
2022-08-03T02:19:47.083Z,101267.91
2022-08-03T02:24:51.240Z,101260.53
2022-08-03T02:29:59.847Z,101267.44
2022-08-03T02:35:06.489Z,101259.19
2022-08-03T02:40:11.519Z,101257.19
2022-08-03T02:45:17.979Z,101251.72
2022-08-03T02:50:24.202Z,101255.09
2022-08-03T02:55:28.470Z,101255.00
2022-08-03T03:00:32.927Z,101253.22
2022-08-03T03:05:53.495Z,101251.44
2022-08-03T03:11:02.187Z,101260.31
2022-08-03T03:16:07.228Z,101258.56
2022-08-03T03:21:12.004Z,101263.91
2022-08-03T03:26:15.707Z,101259.44
2022-08-03T03:31:18.879Z,101255.88
2022-08-03T03:36:23.112Z,101258.59
2022-08-03T03:41:26.235Z,101260.41
2022-08-03T03:46:29.273Z,101262.28
2022-08-03T03:51:33.625Z,101259.63
2022-08-03T03:56:36.447Z,101261.38
2022-08-03T04:01:39.802Z,101269.38
2022-08-03T04:07:00.888Z,101263.16
2022-08-03T04:12:05.812Z,101264.03
2022-08-03T04:17:10.679Z,101258.63
2022-08-03T04:22:20.520Z,101266.66
2022-08-03T04:27:27.264Z,101269.19
2022-08-03T04:32:31.649Z,101274.53
2022-08-03T04:37:39.868Z,101274.59
2022-08-03T04:42:44.135Z,101276.41
2022-08-03T04:47:48.347Z,101278.28
2022-08-03T04:52:52.609Z,101274.81
2022-08-03T04:57:55.726Z,101285.59
2022-08-03T05:02:58.540Z,101279.50
2022-08-03T05:08:03.471Z,101277.97
2022-08-03T05:13:06.486Z,101281.72
2022-08-03T05:18:13.701Z,101281.09
2022-08-03T05:23:18.502Z,101270.72
2022-08-03T05:28:21.327Z,101277.22
2022-08-03T05:33:24.226Z,101278.34
2022-08-03T05:38:35.133Z,101270.59
2022-08-03T05:43:38.214Z,101270.03
2022-08-03T05:48:41.510Z,101279.22
2022-08-03T05:53:46.314Z,101280.38
2022-08-03T05:58:49.158Z,101276.19
2022-08-03T06:03:52.250Z,101274.69
2022-08-03T06:08:56.395Z,101283.00
2022-08-03T06:13:59.233Z,101278.75
2022-08-03T06:19:02.160Z,101262.78
2022-08-03T06:24:06.854Z,101261.16
2022-08-03T06:29:10.611Z,101270.28
2022-08-03T06:34:34.015Z,101262.28
2022-08-03T06:39:38.068Z,101265.03
2022-08-03T06:44:40.921Z,101267.75
2022-08-03T06:49:43.768Z,101266.84
2022-08-03T06:55:09.094Z,101264.06
2022-08-03T07:00:12.978Z,101267.56
2022-08-03T07:05:16.183Z,101266.56
2022-08-03T07:10:20.350Z,101266.38
2022-08-03T07:15:54.616Z,101266.25
2022-08-03T07:20:46.077Z,101269.59
2022-08-03T07:25:50.848Z,101266.69
2022-08-03T07:30:53.742Z,101266.44
2022-08-03T07:35:57.065Z,101267.91
2022-08-03T07:41:01.294Z,101255.13
2022-08-03T07:46:04.127Z,101262.84
2022-08-03T07:51:07.085Z,101260.72
2022-08-03T07:56:11.483Z,101263.94
2022-08-03T08:01:15.193Z,101251.81
2022-08-03T08:06:19.213Z,101251.44
2022-08-03T08:11:23.428Z,101238.41
2022-08-03T08:16:26.230Z,101239.78
2022-08-03T08:22:01.802Z,101245.75
2022-08-03T08:26:53.405Z,101243.56
2022-08-03T08:31:56.216Z,101252.09
2022-08-03T08:36:59.536Z,101242.59
2022-08-03T08:42:03.842Z,101237.69
2022-08-03T08:47:08.900Z,101240.69
2022-08-03T08:52:25.225Z,101239.75
2022-08-03T08:57:42.742Z,101235.16
2022-08-03T09:02:47.285Z,101241.06
2022-08-03T09:07:50.704Z,101235.16
2022-08-03T09:12:54.896Z,101236.75
2022-08-03T09:17:59.283Z,101233.09
2022-08-03T09:23:19.123Z,101238.41
2022-08-03T09:29:01.720Z,101239.94
2022-08-03T09:34:01.144Z,101234.50
2022-08-03T09:39:06.168Z,101229.78
2022-08-03T09:44:25.407Z,101237.56
2022-08-03T09:49:28.917Z,101224.31
2022-08-03T09:54:34.195Z,101217.41
2022-08-03T09:59:41.095Z,101225.16
2022-08-03T10:04:50.924Z,101214.88
2022-08-03T10:09:58.470Z,101214.25
2022-08-03T10:16:22.768Z,101207.50
2022-08-03T10:20:50.419Z,101193.59
2022-08-03T10:25:59.082Z,101197.00
2022-08-03T10:31:07.695Z,101202.13
2022-08-03T10:36:10.961Z,101194.50
2022-08-03T10:41:14.484Z,101186.44
2022-08-03T10:46:22.327Z,101188.00
2022-08-03T10:51:29.187Z,101184.31
2022-08-03T10:57:03.423Z,101182.88
2022-08-03T11:02:18.821Z,101175.88
2022-08-03T11:07:23.677Z,101169.72
2022-08-03T11:12:30.284Z,101171.41
2022-08-03T11:17:46.421Z,101172.81
2022-08-03T11:23:01.627Z,101165.63
2022-08-03T11:28:26.377Z,101164.66
2022-08-03T11:33:34.164Z,101163.72
2022-08-03T11:38:57.018Z,101165.13
2022-08-03T11:43:59.853Z,101157.59
2022-08-03T11:49:10.739Z,101161.22
2022-08-03T11:54:14.290Z,101152.03
2022-08-03T11:59:21.755Z,101149.75
2022-08-03T12:04:26.607Z,101159.66
2022-08-03T12:09:29.427Z,101147.59
2022-08-03T12:14:49.684Z,101151.81
2022-08-03T12:19:56.186Z,101152.91
2022-08-03T12:24:59.881Z,101142.63
2022-08-03T12:30:03.702Z,101148.06
2022-08-03T12:35:09.238Z,101149.50
2022-08-03T12:40:20.562Z,101137.81
2022-08-03T12:45:26.218Z,101143.09
2022-08-03T12:50:32.093Z,101131.97
2022-08-03T12:55:56.231Z,101128.75
2022-08-03T13:00:58.871Z,101128.22
2022-08-03T13:06:03.078Z,101119.69
2022-08-03T13:11:20.028Z,101122.22
2022-08-03T13:16:23.293Z,101125.16
2022-08-03T13:21:27.497Z,101125.81
2022-08-03T13:26:30.302Z,101133.44
2022-08-03T13:31:33.225Z,101129.00
2022-08-03T13:37:06.449Z,101122.28
2022-08-03T13:42:00.538Z,101118.84
2022-08-03T13:47:03.311Z,101124.63
2022-08-03T13:52:07.663Z,101121.56
2022-08-03T13:58:11.706Z,101118.56
2022-08-03T14:02:34.377Z,101099.63
2022-08-03T14:07:38.608Z,101094.41
2022-08-03T14:12:42.962Z,101103.47
2022-08-03T14:17:49.947Z,101100.75
2022-08-03T14:22:55.490Z,101097.34
2022-08-03T14:27:58.269Z,101102.88
2022-08-03T14:33:01.086Z,101103.63
2022-08-03T14:38:05.296Z,101100.78
2022-08-03T14:43:08.232Z,101101.56
2022-08-03T14:50:29.392Z,101099.78
2022-08-03T14:53:36.945Z,101089.81
2022-08-03T14:58:39.986Z,101087.66
2022-08-03T15:03:44.102Z,101103.06
2022-08-03T15:09:13.623Z,101091.16
2022-08-03T15:14:13.502Z,101093.78
2022-08-03T15:20:03.141Z,101091.06
2022-08-03T15:24:42.521Z,101091.84
2022-08-03T15:30:04.715Z,101086.66
2022-08-03T15:35:08.861Z,101088.94
2022-08-03T15:40:14.210Z,101083.91
2022-08-03T15:45:17.825Z,101084.06
2022-08-03T15:50:23.225Z,101082.94
2022-08-03T15:55:27.739Z,101081.06
2022-08-03T16:00:33.359Z,101070.84
2022-08-03T16:05:36.990Z,101079.91
2022-08-03T16:10:41.621Z,101077.16
2022-08-03T16:15:44.429Z,101077.16
2022-08-03T16:20:47.596Z,101077.78
2022-08-03T16:25:51.946Z,101080.91
2022-08-03T16:30:55.032Z,101080.50
2022-08-03T16:35:57.893Z,101076.75
2022-08-03T16:41:02.348Z,101085.16
2022-08-03T16:46:05.439Z,101089.22
2022-08-03T16:51:08.448Z,101085.50
2022-08-03T16:56:12.980Z,101087.03
2022-08-03T17:01:21.500Z,101082.94
2022-08-03T17:06:33.815Z,101078.31
2022-08-03T17:11:44.052Z,101093.34
2022-08-03T17:16:54.570Z,101082.06
2022-08-03T17:22:04.433Z,101084.34
2022-08-03T17:28:42.241Z,101085.53
2022-08-03T17:32:36.832Z,101086.88
2022-08-03T17:37:58.731Z,101091.81
2022-08-03T17:44:13.141Z,101094.19
2022-08-03T17:48:33.238Z,101096.66
2022-08-03T17:53:44.194Z,101092.53
2022-08-03T17:58:57.031Z,101097.41
2022-08-03T18:04:11.097Z,101108.59
2022-08-03T18:10:03.730Z,101112.63
2022-08-03T18:20:34.748Z,101119.75
2022-08-03T18:25:45.381Z,101127.34
2022-08-03T18:30:55.295Z,101129.22
2022-08-03T18:35:58.812Z,101131.81
2022-08-03T18:41:01.935Z,101139.56
2022-08-03T18:46:08.402Z,101146.16
2022-08-03T18:51:28.411Z,101147.19
2022-08-03T18:56:42.524Z,101151.16
2022-08-03T19:02:00.544Z,101149.66
2022-08-03T19:07:08.303Z,101150.91
2022-08-03T19:12:26.528Z,101154.72
2022-08-03T19:17:38.470Z,101159.34
2022-08-03T19:22:45.861Z,101170.34
2022-08-03T19:27:49.893Z,101172.44
2022-08-03T19:32:55.540Z,101171.75
2022-08-03T19:37:59.634Z,101170.25
2022-08-03T19:43:10.130Z,101179.72
2022-08-03T19:48:15.883Z,101171.88
2022-08-03T19:53:20.083Z,101171.38
2022-08-03T19:58:31.146Z,101174.50
2022-08-03T20:03:43.139Z,101176.72
2022-08-03T20:08:51.472Z,101178.69
2022-08-03T20:13:55.875Z,101176.13
2022-08-03T20:19:00.662Z,101176.28
2022-08-03T20:24:24.645Z,101163.81
2022-08-03T20:29:42.710Z,101168.41
2022-08-03T20:34:55.564Z,101181.22
2022-08-03T20:39:58.436Z,101173.25
2022-08-03T20:45:05.668Z,101187.66
2022-08-03T20:50:17.438Z,101193.28
2022-08-03T20:55:47.653Z,101189.91
2022-08-03T21:00:43.297Z,101187.34
2022-08-03T21:05:53.494Z,101188.34
2022-08-03T21:10:59.587Z,101177.69
2022-08-03T21:12:57.248Z,101116.09
2022-08-03T21:16:13.782Z,101186.75
2022-08-03T21:21:21.835Z,101187.75
2022-08-03T21:26:26.025Z,101181.47
2022-08-03T21:31:28.910Z,101183.28
2022-08-03T21:36:36.978Z,101186.03
2022-08-03T21:41:41.151Z,101184.25
2022-08-03T21:46:45.145Z,101178.84
2022-08-03T21:51:50.529Z,101177.06
2022-08-03T21:56:57.735Z,101183.34
2022-08-03T22:02:00.950Z,101188.78
2022-08-03T22:07:05.368Z,101188.78
2022-08-03T22:12:09.176Z,101195.03
2022-08-03T22:17:12.033Z,101201.31
2022-08-03T22:22:30.735Z,101208.44
2022-08-03T22:27:38.199Z,101209.22
2022-08-03T22:32:42.304Z,101207.34
2022-08-03T22:37:50.287Z,101205.50
2022-08-03T22:42:56.115Z,101210.84
2022-08-03T22:47:59.485Z,101204.50
2022-08-03T22:53:03.850Z,101216.03
2022-08-03T22:58:06.641Z,101209.69
2022-08-03T23:03:09.916Z,101211.38
2022-08-03T23:08:16.160Z,101214.88
2022-08-03T23:13:20.004Z,101210.28
2022-08-03T23:18:24.765Z,101198.63
2022-08-03T23:23:30.653Z,101209.25
2022-08-03T23:28:49.744Z,101209.28
2022-08-03T23:34:16.528Z,101196.78
2022-08-03T23:39:21.144Z,101199.50
2022-08-03T23:44:26.025Z,101198.63
2022-08-03T23:49:28.818Z,101206.59
2022-08-03T23:54:41.576Z,101197.47
2022-08-03T23:59:55.371Z,101196.56
